sensor_id;sensor_type;location;lat;lon;timestamp;pressure;altitude;pressure_sealevel;temperature;humidity
76847;BME280;65813;49.546;8.644;2023-04-03T04:17:17;101684.59;;;2.16;73.55
76847;BME280;65813;49.546;8.644;2023-04-03T04:21:18;101690.59;;;2.22;73.30
76847;BME280;65813;49.546;8.644;2023-04-03T04:25:18;101681.13;;;2.12;74.14
76847;BME280;65813;49.546;8.644;2023-04-03T04:29:18;101690.34;;;2.36;74.10
76847;BME280;65813;49.546;8.644;2023-04-03T04:33:19;101685.13;;;2.33;73.61
76847;BME280;65813;49.546;8.644;2023-04-03T04:37:19;101679.56;;;2.02;73.17
76847;BME280;65813;49.546;8.644;2023-04-03T04:41:22;101680.25;;;2.13;73.32
76847;BME280;65813;49.546;8.644;2023-04-03T04:45:23;101681.13;;;2.12;73.02
76847;BME280;65813;49.546;8.644;2023-04-03T04:49:23;101685.34;;;2.21;73.39
76847;BME280;65813;49.546;8.644;2023-04-03T04:53:23;101676.81;;;2.10;73.45
76847;BME280;65813;49.546;8.644;2023-04-03T04:57:24;101683.59;;;2.21;72.78
76847;BME280;65813;49.546;8.644;2023-04-03T05:01:24;101689.91;;;2.13;72.63
76847;BME280;65813;49.546;8.644;2023-04-03T05:05:24;101694.03;;;2.24;73.57
76847;BME280;65813;49.546;8.644;2023-04-03T05:09:25;101688.03;;;2.18;73.77
76847;BME280;65813;49.546;8.644;2023-04-03T05:13:25;101682.84;;;2.15;73.56
76847;BME280;65813;49.546;8.644;2023-04-03T05:17:26;101703.00;;;2.14;73.33
76847;BME280;65813;49.546;8.644;2023-04-03T05:21:26;101707.50;;;2.08;73.86
76847;BME280;65813;49.546;8.644;2023-04-03T05:25:29;101703.16;;;2.05;74.47
76847;BME280;65813;49.546;8.644;2023-04-03T05:29:30;101703.19;;;2.03;73.69
76847;BME280;65813;49.546;8.644;2023-04-03T05:33:30;101708.22;;;2.16;74.31
76847;BME280;65813;49.546;8.644;2023-04-03T05:37:30;101695.72;;;2.30;73.23
76847;BME280;65813;49.546;8.644;2023-04-03T05:41:31;101716.56;;;2.39;72.63
76847;BME280;65813;49.546;8.644;2023-04-03T05:45:31;101706.03;;;2.39;73.65
76847;BME280;65813;49.546;8.644;2023-04-03T05:49:32;101699.53;;;3.01;75.00
76847;BME280;65813;49.546;8.644;2023-04-03T05:53:35;101715.47;;;3.35;72.11
76847;BME280;65813;49.546;8.644;2023-04-03T05:57:37;101707.09;;;3.91;72.61
76847;BME280;65813;49.546;8.644;2023-04-03T06:01:37;101707.63;;;4.38;71.44
76847;BME280;65813;49.546;8.644;2023-04-03T06:05:37;101711.22;;;4.68;69.54
76847;BME280;65813;49.546;8.644;2023-04-03T06:09:38;101716.50;;;4.98;68.57
76847;BME280;65813;49.546;8.644;2023-04-03T06:13:38;101709.94;;;5.12;66.52
76847;BME280;65813;49.546;8.644;2023-04-03T06:17:40;101707.72;;;5.27;65.49
76847;BME280;65813;49.546;8.644;2023-04-03T06:21:40;101711.63;;;5.43;66.20
76847;BME280;65813;49.546;8.644;2023-04-03T06:25:41;101722.03;;;5.20;65.83
76847;BME280;65813;49.546;8.644;2023-04-03T06:29:42;101724.22;;;5.06;66.28
76847;BME280;65813;49.546;8.644;2023-04-03T06:33:43;101716.94;;;4.83;65.99
76847;BME280;65813;49.546;8.644;2023-04-03T06:37:43;101735.00;;;4.66;67.51
76847;BME280;65813;49.546;8.644;2023-04-03T06:41:43;101735.47;;;4.49;68.00
76847;BME280;65813;49.546;8.644;2023-04-03T06:45:44;101726.19;;;4.67;67.95
76847;BME280;65813;49.546;8.644;2023-04-03T06:49:45;101737.31;;;4.78;67.33
76847;BME280;65813;49.546;8.644;2023-04-03T06:53:49;101743.31;;;4.83;67.29
76847;BME280;65813;49.546;8.644;2023-04-03T06:57:50;101738.50;;;4.99;67.17
76847;BME280;65813;49.546;8.644;2023-04-03T07:01:51;101747.97;;;5.06;66.42
76847;BME280;65813;49.546;8.644;2023-04-03T07:05:51;101739.16;;;5.36;67.11
76847;BME280;65813;49.546;8.644;2023-04-03T07:09:52;101748.72;;;5.68;64.58
76847;BME280;65813;49.546;8.644;2023-04-03T07:13:53;101754.72;;;5.73;64.26
76847;BME280;65813;49.546;8.644;2023-04-03T07:17:54;101761.00;;;5.69;63.93
76847;BME280;65813;49.546;8.644;2023-04-03T07:21:54;101759.75;;;6.10;63.28
76847;BME280;65813;49.546;8.644;2023-04-03T07:25:55;101765.13;;;6.33;62.83
76847;BME280;65813;49.546;8.644;2023-04-03T07:29:55;101772.41;;;6.27;61.05
76847;BME280;65813;49.546;8.644;2023-04-03T07:33:56;101764.97;;;6.38;61.26
76847;BME280;65813;49.546;8.644;2023-04-03T07:37:56;101780.22;;;6.56;60.13
76847;BME280;65813;49.546;8.644;2023-04-03T07:41:56;101776.06;;;6.23;59.25
76847;BME280;65813;49.546;8.644;2023-04-03T07:45:57;101770.22;;;6.13;58.75
76847;BME280;65813;49.546;8.644;2023-04-03T07:49:57;101781.16;;;6.29;59.99
76847;BME280;65813;49.546;8.644;2023-04-03T07:53:57;101745.63;;;6.36;58.11
76847;BME280;65813;49.546;8.644;2023-04-03T07:57:58;101771.69;;;6.48;56.82
76847;BME280;65813;49.546;8.644;2023-04-03T08:01:59;101775.16;;;6.50;58.73
76847;BME280;65813;49.546;8.644;2023-04-03T08:06:04;101778.28;;;6.61;55.73
76847;BME280;65813;49.546;8.644;2023-04-03T08:10:05;101780.09;;;6.59;54.54
76847;BME280;65813;49.546;8.644;2023-04-03T08:14:06;101780.84;;;6.64;53.45
76847;BME280;65813;49.546;8.644;2023-04-03T08:18:07;101783.78;;;6.80;54.20
76847;BME280;65813;49.546;8.644;2023-04-03T08:22:07;101786.50;;;6.78;51.44
76847;BME280;65813;49.546;8.644;2023-04-03T08:26:10;101777.63;;;6.79;51.21
76847;BME280;65813;49.546;8.644;2023-04-03T08:30:12;101785.16;;;6.91;50.77
76847;BME280;65813;49.546;8.644;2023-04-03T08:34:13;101788.22;;;6.79;51.49
76847;BME280;65813;49.546;8.644;2023-04-03T08:38:14;101773.31;;;6.77;52.46
76847;BME280;65813;49.546;8.644;2023-04-03T08:46:20;101782.00;;;6.80;51.16
76847;BME280;65813;49.546;8.644;2023-04-03T08:50:29;101786.19;;;6.87;48.20
76847;BME280;65813;49.546;8.644;2023-04-03T08:54:39;101782.84;;;6.82;47.72
76847;BME280;65813;49.546;8.644;2023-04-03T08:59:06;101775.31;;;7.18;47.60
76847;BME280;65813;49.546;8.644;2023-04-03T09:03:16;101773.03;;;7.32;47.43
76847;BME280;65813;49.546;8.644;2023-04-03T09:07:24;101768.06;;;7.46;47.70
76847;BME280;65813;49.546;8.644;2023-04-03T09:11:31;101752.25;;;7.67;46.36
76847;BME280;65813;49.546;8.644;2023-04-03T09:15:36;101765.25;;;7.73;44.19
76847;BME280;65813;49.546;8.644;2023-04-03T09:19:49;101774.50;;;7.86;44.50
76847;BME280;65813;49.546;8.644;2023-04-03T09:23:56;101772.03;;;7.35;46.20
76847;BME280;65813;49.546;8.644;2023-04-03T09:27:59;101777.03;;;7.66;44.40
76847;BME280;65813;49.546;8.644;2023-04-03T09:32:01;101763.94;;;7.39;42.86
76847;BME280;65813;49.546;8.644;2023-04-03T09:36:02;101777.03;;;7.44;44.21
76847;BME280;65813;49.546;8.644;2023-04-03T09:40:03;101759.84;;;7.54;42.01
76847;BME280;65813;49.546;8.644;2023-04-03T09:44:20;101763.59;;;7.70;41.75
76847;BME280;65813;49.546;8.644;2023-04-03T09:48:23;101767.06;;;7.72;43.08
76847;BME280;65813;49.546;8.644;2023-04-03T09:52:25;101751.53;;;8.06;44.31
76847;BME280;65813;49.546;8.644;2023-04-03T09:56:30;101756.16;;;8.65;40.91
76847;BME280;65813;49.546;8.644;2023-04-03T10:00:34;101764.56;;;8.95;41.49
76847;BME280;65813;49.546;8.644;2023-04-03T10:04:40;101755.13;;;8.88;38.99
76847;BME280;65813;49.546;8.644;2023-04-03T10:08:41;101757.38;;;8.77;38.91
76847;BME280;65813;49.546;8.644;2023-04-03T10:12:41;101762.50;;;8.81;40.29
76847;BME280;65813;49.546;8.644;2023-04-03T10:16:46;101761.03;;;8.74;38.78
76847;BME280;65813;49.546;8.644;2023-04-03T10:20:49;101751.75;;;8.84;37.90
76847;BME280;65813;49.546;8.644;2023-04-03T10:25:02;101747.41;;;9.02;38.11
76847;BME280;65813;49.546;8.644;2023-04-03T10:33:37;101740.66;;;8.54;40.17
76847;BME280;65813;49.546;8.644;2023-04-03T10:38:01;101743.97;;;8.39;39.83
76847;BME280;65813;49.546;8.644;2023-04-03T10:46:18;101751.28;;;7.91;41.56
76847;BME280;65813;49.546;8.644;2023-04-03T10:50:31;101750.56;;;8.51;39.33
76847;BME280;65813;49.546;8.644;2023-04-03T10:54:39;101753.00;;;8.13;38.44
76847;BME280;65813;49.546;8.644;2023-04-03T10:58:50;101742.84;;;8.03;39.91
76847;BME280;65813;49.546;8.644;2023-04-03T11:02:56;101744.97;;;7.93;41.13
76847;BME280;65813;49.546;8.644;2023-04-03T11:07:01;101741.31;;;8.18;41.93
76847;BME280;65813;49.546;8.644;2023-04-03T11:11:08;101735.84;;;8.00;41.80
76847;BME280;65813;49.546;8.644;2023-04-03T11:15:16;101742.28;;;7.95;42.05
76847;BME280;65813;49.546;8.644;2023-04-03T11:19:21;101696.94;;;7.57;40.91
76847;BME280;65813;49.546;8.644;2023-04-03T11:23:25;101738.19;;;7.86;40.07
76847;BME280;65813;49.546;8.644;2023-04-03T11:27:27;101732.97;;;7.85;39.99
76847;BME280;65813;49.546;8.644;2023-04-03T11:31:38;101734.91;;;7.80;40.57
76847;BME280;65813;49.546;8.644;2023-04-03T11:35:47;101717.34;;;7.77;41.68
76847;BME280;65813;49.546;8.644;2023-04-03T11:39:54;101730.31;;;7.85;42.33
76847;BME280;65813;49.546;8.644;2023-04-03T11:44:02;101720.34;;;7.46;43.08
76847;BME280;65813;49.546;8.644;2023-04-03T11:56:40;101704.25;;;8.77;39.50
76847;BME280;65813;49.546;8.644;2023-04-03T12:17:50;101690.66;;;8.64;38.13
76847;BME280;65813;49.546;8.644;2023-04-03T12:26:06;101667.16;;;9.31;38.25
76847;BME280;65813;49.546;8.644;2023-04-03T12:30:23;101679.16;;;9.76;37.41
76847;BME280;65813;49.546;8.644;2023-04-03T12:39:19;101677.63;;;8.97;36.90
76847;BME280;65813;49.546;8.644;2023-04-03T12:47:52;101670.97;;;8.88;38.49
76847;BME280;65813;49.546;8.644;2023-04-03T12:51:54;101665.94;;;8.82;40.80
76847;BME280;65813;49.546;8.644;2023-04-03T12:55:56;101661.50;;;9.20;41.64
76847;BME280;65813;49.546;8.644;2023-04-03T12:59:57;101653.91;;;9.48;40.72
76847;BME280;65813;49.546;8.644;2023-04-03T13:03:58;101653.72;;;9.16;43.23
76847;BME280;65813;49.546;8.644;2023-04-03T13:08:02;101654.81;;;9.11;41.85
76847;BME280;65813;49.546;8.644;2023-04-03T13:12:10;101659.03;;;8.78;38.02
76847;BME280;65813;49.546;8.644;2023-04-03T13:16:11;101643.66;;;9.22;38.06
76847;BME280;65813;49.546;8.644;2023-04-03T13:20:20;101646.13;;;9.27;36.36
76847;BME280;65813;49.546;8.644;2023-04-03T13:24:20;101641.00;;;9.03;40.45
76847;BME280;65813;49.546;8.644;2023-04-03T13:28:23;101655.31;;;8.62;39.24
76847;BME280;65813;49.546;8.644;2023-04-03T13:32:26;101654.31;;;8.24;38.88
76847;BME280;65813;49.546;8.644;2023-04-03T13:36:39;101641.94;;;8.84;37.15
76847;BME280;65813;49.546;8.644;2023-04-03T13:40:54;101635.63;;;9.24;36.22
76847;BME280;65813;49.546;8.644;2023-04-03T13:45:21;101641.03;;;9.58;36.56
76847;BME280;65813;49.546;8.644;2023-04-03T13:49:35;101647.56;;;9.34;36.84
76847;BME280;65813;49.546;8.644;2023-04-03T13:53:43;101644.16;;;9.11;38.65
76847;BME280;65813;49.546;8.644;2023-04-03T14:06:14;101640.84;;;9.25;33.16
76847;BME280;65813;49.546;8.644;2023-04-03T14:10:15;101621.56;;;9.57;34.97
76847;BME280;65813;49.546;8.644;2023-04-03T14:14:21;101622.41;;;9.58;33.07
76847;BME280;65813;49.546;8.644;2023-04-03T14:18:22;101606.84;;;9.68;33.27
76847;BME280;65813;49.546;8.644;2023-04-03T14:22:32;101616.75;;;9.47;34.32
76847;BME280;65813;49.546;8.644;2023-04-03T14:26:33;101601.50;;;9.14;32.96
76847;BME280;65813;49.546;8.644;2023-04-03T14:30:34;101607.81;;;9.31;34.15
76847;BME280;65813;49.546;8.644;2023-04-03T14:34:35;101602.66;;;9.45;33.79
76847;BME280;65813;49.546;8.644;2023-04-03T14:38:35;101601.41;;;9.52;35.02
76847;BME280;65813;49.546;8.644;2023-04-03T14:42:37;101594.13;;;9.38;33.21
76847;BME280;65813;49.546;8.644;2023-04-03T14:46:39;101583.72;;;9.34;32.89
76847;BME280;65813;49.546;8.644;2023-04-03T14:50:42;101587.03;;;9.56;32.38
76847;BME280;65813;49.546;8.644;2023-04-03T14:54:42;101579.44;;;9.65;33.17
76847;BME280;65813;49.546;8.644;2023-04-03T14:58:43;101587.31;;;9.69;32.61
76847;BME280;65813;49.546;8.644;2023-04-03T15:02:44;101585.25;;;9.56;32.20
76847;BME280;65813;49.546;8.644;2023-04-03T15:06:46;101578.53;;;9.67;30.36
76847;BME280;65813;49.546;8.644;2023-04-03T15:10:47;101590.13;;;9.30;31.21
76847;BME280;65813;49.546;8.644;2023-04-03T15:14:49;101581.94;;;9.34;32.28
76847;BME280;65813;49.546;8.644;2023-04-03T15:18:49;101574.69;;;9.19;32.92
76847;BME280;65813;49.546;8.644;2023-04-03T15:22:50;101577.41;;;9.36;33.43
76847;BME280;65813;49.546;8.644;2023-04-03T15:26:50;101582.63;;;9.38;34.20
76847;BME280;65813;49.546;8.644;2023-04-03T15:30:51;101587.28;;;9.16;32.75
76847;BME280;65813;49.546;8.644;2023-04-03T15:34:51;101582.13;;;9.12;33.31
76847;BME280;65813;49.546;8.644;2023-04-03T15:38:51;101578.53;;;9.13;33.33
76847;BME280;65813;49.546;8.644;2023-04-03T15:42:52;101568.63;;;8.98;33.83
76847;BME280;65813;49.546;8.644;2023-04-03T15:46:52;101574.31;;;8.72;33.44
76847;BME280;65813;49.546;8.644;2023-04-03T15:50:53;101581.63;;;8.67;32.96
76847;BME280;65813;49.546;8.644;2023-04-03T15:54:53;101578.22;;;8.45;33.46
76847;BME280;65813;49.546;8.644;2023-04-03T16:03:21;101588.25;;;8.38;33.04
76847;BME280;65813;49.546;8.644;2023-04-03T16:07:24;101575.63;;;8.62;36.62
76847;BME280;65813;49.546;8.644;2023-04-03T16:11:25;101581.53;;;8.50;33.19
76847;BME280;65813;49.546;8.644;2023-04-03T16:15:26;101576.16;;;8.51;34.31
76847;BME280;65813;49.546;8.644;2023-04-03T16:19:27;101586.41;;;8.59;34.78
76847;BME280;65813;49.546;8.644;2023-04-03T16:23:28;101583.59;;;8.62;34.28
76847;BME280;65813;49.546;8.644;2023-04-03T16:27:29;101595.28;;;8.39;34.68
76847;BME280;65813;49.546;8.644;2023-04-03T16:31:32;101598.66;;;8.43;34.57
76847;BME280;65813;49.546;8.644;2023-04-03T16:35:32;101584.13;;;8.11;35.27
76847;BME280;65813;49.546;8.644;2023-04-03T16:39:33;101582.47;;;8.08;34.90
76847;BME280;65813;49.546;8.644;2023-04-03T16:43:42;101585.81;;;8.13;34.61
76847;BME280;65813;49.546;8.644;2023-04-03T16:47:43;101590.72;;;8.02;34.42
76847;BME280;65813;49.546;8.644;2023-04-03T16:51:43;101590.00;;;7.99;35.19
76847;BME280;65813;49.546;8.644;2023-04-03T16:55:43;101594.03;;;8.07;34.92
76847;BME280;65813;49.546;8.644;2023-04-03T16:59:44;101587.06;;;7.85;34.67
76847;BME280;65813;49.546;8.644;2023-04-03T17:03:44;101588.06;;;7.82;34.41
76847;BME280;65813;49.546;8.644;2023-04-03T17:07:45;101594.75;;;7.71;34.87
76847;BME280;65813;49.546;8.644;2023-04-03T17:11:45;101602.38;;;7.78;35.26
76847;BME280;65813;49.546;8.644;2023-04-03T17:15:46;101604.09;;;7.79;35.89
76847;BME280;65813;49.546;8.644;2023-04-03T17:19:46;101598.41;;;7.68;35.39
76847;BME280;65813;49.546;8.644;2023-04-03T17:23:50;101597.28;;;7.52;35.52
76847;BME280;65813;49.546;8.644;2023-04-03T17:27:52;101584.00;;;7.32;35.52
76847;BME280;65813;49.546;8.644;2023-04-03T17:31:53;101601.06;;;7.25;35.61
76847;BME280;65813;49.546;8.644;2023-04-03T17:35:56;101598.22;;;7.29;36.04
76847;BME280;65813;49.546;8.644;2023-04-03T17:39:56;101620.06;;;7.36;36.65
76847;BME280;65813;49.546;8.644;2023-04-03T17:43:56;101616.97;;;7.25;36.50
76847;BME280;65813;49.546;8.644;2023-04-03T17:47:57;101611.63;;;7.26;36.85
76847;BME280;65813;49.546;8.644;2023-04-03T17:51:57;101603.59;;;7.06;36.86
76847;BME280;65813;49.546;8.644;2023-04-03T17:55:58;101607.84;;;7.10;38.07
76847;BME280;65813;49.546;8.644;2023-04-03T17:59:58;101615.72;;;7.11;37.95
76847;BME280;65813;49.546;8.644;2023-04-03T18:04:01;101622.69;;;7.14;38.82
76847;BME280;65813;49.546;8.644;2023-04-03T18:08:02;101620.44;;;7.27;42.02
76847;BME280;65813;49.546;8.644;2023-04-03T18:12:04;101623.00;;;7.06;37.61
76847;BME280;65813;49.546;8.644;2023-04-03T18:16:07;101618.84;;;6.76;37.91
76847;BME280;65813;49.546;8.644;2023-04-03T18:20:08;101620.03;;;6.92;41.13
76847;BME280;65813;49.546;8.644;2023-04-03T18:24:12;101634.88;;;6.73;37.89
76847;BME280;65813;49.546;8.644;2023-04-03T18:28:13;101629.94;;;6.64;38.24
76847;BME280;65813;49.546;8.644;2023-04-03T18:32:15;101638.91;;;6.60;39.60
76847;BME280;65813;49.546;8.644;2023-04-03T18:36:16;101645.41;;;6.51;40.30
76847;BME280;65813;49.546;8.644;2023-04-03T18:40:16;101648.44;;;6.41;40.03
76847;BME280;65813;49.546;8.644;2023-04-03T18:44:20;101651.88;;;6.43;40.14
76847;BME280;65813;49.546;8.644;2023-04-03T18:48:22;101651.78;;;6.46;40.57
76847;BME280;65813;49.546;8.644;2023-04-03T18:52:23;101644.31;;;6.32;42.53
76847;BME280;65813;49.546;8.644;2023-04-03T18:56:26;101648.75;;;6.32;42.05
76847;BME280;65813;49.546;8.644;2023-04-03T19:00:27;101657.16;;;6.18;41.00
76847;BME280;65813;49.546;8.644;2023-04-03T19:04:28;101662.34;;;6.21;41.92
76847;BME280;65813;49.546;8.644;2023-04-03T19:08:29;101662.69;;;6.12;41.34
76847;BME280;65813;49.546;8.644;2023-04-03T19:12:32;101664.06;;;5.97;41.86
76847;BME280;65813;49.546;8.644;2023-04-03T19:16:34;101678.94;;;6.00;42.46
76847;BME280;65813;49.546;8.644;2023-04-03T19:20:34;101680.34;;;5.84;42.26
76847;BME280;65813;49.546;8.644;2023-04-03T19:24:35;101690.41;;;6.00;43.08
76847;BME280;65813;49.546;8.644;2023-04-03T19:28:36;101689.16;;;5.84;43.72
76847;BME280;65813;49.546;8.644;2023-04-03T19:32:37;101677.78;;;5.82;42.20
76847;BME280;65813;49.546;8.644;2023-04-03T19:36:37;101673.13;;;5.90;44.92
76847;BME280;65813;49.546;8.644;2023-04-03T19:40:38;101685.88;;;5.76;43.26
76847;BME280;65813;49.546;8.644;2023-04-03T19:44:42;101692.50;;;5.63;43.68
76847;BME280;65813;49.546;8.644;2023-04-03T19:48:44;101697.44;;;5.74;46.11
76847;BME280;65813;49.546;8.644;2023-04-03T19:52:46;101693.13;;;5.71;44.94
76847;BME280;65813;49.546;8.644;2023-04-03T19:56:46;101689.25;;;5.55;43.80
76847;BME280;65813;49.546;8.644;2023-04-03T20:00:47;101695.09;;;5.65;43.35
76847;BME280;65813;49.546;8.644;2023-04-03T20:04:47;101710.34;;;5.83;46.52
76847;BME280;65813;49.546;8.644;2023-04-03T20:08:48;101701.28;;;5.64;44.37
76847;BME280;65813;49.546;8.644;2023-04-03T20:12:48;101702.72;;;5.46;45.05
76847;BME280;65813;49.546;8.644;2023-04-03T20:16:49;101703.84;;;5.39;44.33
76847;BME280;65813;49.546;8.644;2023-04-03T20:20:54;101702.09;;;5.38;45.08
76847;BME280;65813;49.546;8.644;2023-04-03T20:24:55;101701.75;;;5.21;44.53
76847;BME280;65813;49.546;8.644;2023-04-03T20:28:57;101705.91;;;5.29;44.42
76847;BME280;65813;49.546;8.644;2023-04-03T20:32:58;101700.38;;;5.37;44.89
76847;BME280;65813;49.546;8.644;2023-04-03T20:36:58;101707.13;;;5.18;44.81
76847;BME280;65813;49.546;8.644;2023-04-03T20:40:58;101695.31;;;5.00;47.28
76847;BME280;65813;49.546;8.644;2023-04-03T20:44:59;101712.78;;;5.05;45.22
76847;BME280;65813;49.546;8.644;2023-04-03T20:48:59;101696.34;;;4.96;46.45
76847;BME280;65813;49.546;8.644;2023-04-03T20:57:10;101695.72;;;4.86;45.53
76847;BME280;65813;49.546;8.644;2023-04-03T21:01:13;101695.19;;;5.04;49.50
76847;BME280;65813;49.546;8.644;2023-04-03T21:05:15;101692.97;;;4.91;49.55
